Sibirskiy-2112 — UBXE8 — position and weather

sailwx.info

Track history (hours):
 
Tides and Currents Weather Stations Pressure Air Temp Water Temp Dewpoint Dewpoint Depression Visibility Wind Speed Wind Dir Waves Ship Positions

Sibirskiy-2112

Last reported at 2014-Dec-18 09:24 UTC. Time now 2014-Dec-19 20:16 UTC.
Position N 44°01' E 033°58'.

Length 129 m; draft 3.8 m.

Type: Cargo ship. MMSI: 273342420.

Date/timePositionNaut miles runAvg speedWind from/ knotsBaromVisibWave heightAir tempDewpointWater temp
2014-Dec-18 09:24N 44°01' E 033°58'8 7.7
2014-Dec-18 08:19N 44°07' E 034°07'6 7.9
2014-Dec-18 07:32N 44°10' E 034°14'8 8.0
2014-Dec-18 06:33N 44°15' E 034°23'8 8.1
2014-Dec-18 05:33N 44°19' E 034°33'8 8.1
2014-Dec-18 04:33N 44°23' E 034°43'8 8.0
2014-Dec-18 03:33N 44°26' E 034°53'10 8.3
2014-Dec-18 02:19N 44°31' E 035°06'24 8.4
2014-Dec-17 23:27N 44°41' E 035°36'  
Track history (hours):
 
Tides and Currents Weather Stations Pressure Air Temp Water Temp Dewpoint Dewpoint Depression Visibility Wind Speed Wind Dir Waves Ship Positions

Sibirskiy-2112

Last reported at 2014-Dec-18 09:24 UTC. Time now 2014-Dec-19 20:16 UTC.
Position N 44°01' E 033°58'.

Length 129 m; draft 3.8 m.

Type: Cargo ship. MMSI: 273342420.

Date/timePositionNaut miles runAvg speedWind from/ knotsBaromVisibWave heightAir tempDewpointWater temp
2014-Dec-18 09:24N 44°01' E 033°58'8 7.7
2014-Dec-18 08:19N 44°07' E 034°07'6 7.9
2014-Dec-18 07:32N 44°10' E 034°14'8 8.0
2014-Dec-18 06:33N 44°15' E 034°23'8 8.1
2014-Dec-18 05:33N 44°19' E 034°33'8 8.1
2014-Dec-18 04:33N 44°23' E 034°43'8 8.0
2014-Dec-18 03:33N 44°26' E 034°53'10 8.3
2014-Dec-18 02:19N 44°31' E 035°06'24 8.4
2014-Dec-17 23:27N 44°41' E 035°36'  

Dump ship's entire track history